sensor_id;sensor_type;location;lat;lon;timestamp;pressure;altitude;pressure_sealevel;temperature;humidity
47742;BME280;33504;52.066;6.096;2022-10-26T00:01:35;101410.97;;;12.50;47.77
47742;BME280;33504;52.066;6.096;2022-10-26T00:04:03;101412.04;;;12.26;47.76
47742;BME280;33504;52.066;6.096;2022-10-26T00:06:30;101408.50;;;12.26;47.82
47742;BME280;33504;52.066;6.096;2022-10-26T00:08:57;101406.42;;;12.26;47.72
47742;BME280;33504;52.066;6.096;2022-10-26T00:11:24;101403.22;;;12.03;47.91
47742;BME280;33504;52.066;6.096;2022-10-26T00:13:51;101401.31;;;12.02;47.84
47742;BME280;33504;52.066;6.096;2022-10-26T00:16:20;101397.28;;;12.26;47.96
47742;BME280;33504;52.066;6.096;2022-10-26T00:18:48;101392.44;;;12.23;47.95
47742;BME280;33504;52.066;6.096;2022-10-26T00:21:16;101392.78;;;12.25;47.83
47742;BME280;33504;52.066;6.096;2022-10-26T00:23:44;101391.42;;;12.24;47.93
47742;BME280;33504;52.066;6.096;2022-10-26T00:26:11;101389.80;;;12.04;47.93
47742;BME280;33504;52.066;6.096;2022-10-26T00:28:39;101386.22;;;12.04;47.93
47742;BME280;33504;52.066;6.096;2022-10-26T00:31:08;101383.59;;;12.04;47.98
47742;BME280;33504;52.066;6.096;2022-10-26T00:33:37;101383.54;;;12.02;48.10
47742;BME280;33504;52.066;6.096;2022-10-26T00:36:05;101379.59;;;12.25;48.02
47742;BME280;33504;52.066;6.096;2022-10-26T00:38:32;101375.75;;;12.01;48.04
47742;BME280;33504;52.066;6.096;2022-10-26T00:41:00;101374.85;;;12.20;47.99
47742;BME280;33504;52.066;6.096;2022-10-26T00:43:36;101374.42;;;12.20;48.03
47742;BME280;33504;52.066;6.096;2022-10-26T00:46:07;101373.22;;;12.19;48.17
47742;BME280;33504;52.066;6.096;2022-10-26T00:48:38;101367.44;;;12.20;48.14
47742;BME280;33504;52.066;6.096;2022-10-26T00:51:09;101368.82;;;12.43;47.97
47742;BME280;33504;52.066;6.096;2022-10-26T00:53:37;101371.64;;;12.19;48.02
47742;BME280;33504;52.066;6.096;2022-10-26T00:56:05;101370.80;;;12.21;48.14
47742;BME280;33504;52.066;6.096;2022-10-26T00:58:33;101366.03;;;12.00;48.16
47742;BME280;33504;52.066;6.096;2022-10-26T01:01:01;101363.91;;;12.00;48.15
47742;BME280;33504;52.066;6.096;2022-10-26T01:03:29;101365.12;;;12.20;48.03
47742;BME280;33504;52.066;6.096;2022-10-26T01:05:58;101364.28;;;12.19;48.07
47742;BME280;33504;52.066;6.096;2022-10-26T01:08:25;101365.84;;;11.94;48.06
47742;BME280;33504;52.066;6.096;2022-10-26T01:10:53;101366.44;;;12.35;48.05
47742;BME280;33504;52.066;6.096;2022-10-26T01:13:22;101364.28;;;12.34;48.10
47742;BME280;33504;52.066;6.096;2022-10-26T01:15:57;101363.31;;;12.32;48.18
47742;BME280;33504;52.066;6.096;2022-10-26T01:18:36;101360.03;;;12.09;48.27
47742;BME280;33504;52.066;6.096;2022-10-26T01:21:22;101353.84;;;11.88;48.30
47742;BME280;33504;52.066;6.096;2022-10-26T01:24:08;101351.22;;;12.33;48.38
47742;BME280;33504;52.066;6.096;2022-10-26T01:26:52;101346.85;;;12.11;48.41
47742;BME280;33504;52.066;6.096;2022-10-26T01:29:38;101345.73;;;11.89;48.36
47742;BME280;33504;52.066;6.096;2022-10-26T01:32:17;101341.05;;;12.12;48.43
47742;BME280;33504;52.066;6.096;2022-10-26T01:34:51;101338.44;;;11.92;48.39
47742;BME280;33504;52.066;6.096;2022-10-26T01:37:25;101339.04;;;12.14;48.41
47742;BME280;33504;52.066;6.096;2022-10-26T01:39:58;101329.47;;;12.16;48.56
47742;BME280;33504;52.066;6.096;2022-10-26T01:42:30;101327.18;;;12.40;48.53
47742;BME280;33504;52.066;6.096;2022-10-26T01:45:02;101320.88;;;12.44;48.55
47742;BME280;33504;52.066;6.096;2022-10-26T01:47:32;101316.01;;;12.24;48.56
47742;BME280;33504;52.066;6.096;2022-10-26T01:50:01;101311.26;;;12.05;48.58
47742;BME280;33504;52.066;6.096;2022-10-26T01:52:29;101309.39;;;12.33;48.67
47742;BME280;33504;52.066;6.096;2022-10-26T01:55:00;101305.17;;;12.57;48.64
47742;BME280;33504;52.066;6.096;2022-10-26T01:57:29;101303.46;;;12.17;48.58
47742;BME280;33504;52.066;6.096;2022-10-26T02:00:05;101300.87;;;12.41;48.58
47742;BME280;33504;52.066;6.096;2022-10-26T02:03:11;101291.01;;;12.92;48.66
47742;BME280;33504;52.066;6.096;2022-10-26T02:05:50;101285.80;;;12.42;48.72
47742;BME280;33504;52.066;6.096;2022-10-26T02:08:30;101281.18;;;12.26;48.78
47742;BME280;33504;52.066;6.096;2022-10-26T02:11:09;101272.65;;;12.49;48.78
47742;BME280;33504;52.066;6.096;2022-10-26T02:13:44;101268.54;;;12.26;48.89
47742;BME280;33504;52.066;6.096;2022-10-26T02:16:18;101272.79;;;12.48;48.73
47742;BME280;33504;52.066;6.096;2022-10-26T02:18:54;101279.43;;;12.24;48.70
47742;BME280;33504;52.066;6.096;2022-10-26T02:21:28;101298.29;;;11.90;48.80
47742;BME280;33504;52.066;6.096;2022-10-26T02:23:57;101306.02;;;12.03;49.49
47742;BME280;33504;52.066;6.096;2022-10-26T02:26:27;101302.33;;;11.89;50.87
47742;BME280;33504;52.066;6.096;2022-10-26T02:28:59;101302.92;;;12.35;50.33
47742;BME280;33504;52.066;6.096;2022-10-26T02:31:30;101300.65;;;12.12;50.83
47742;BME280;33504;52.066;6.096;2022-10-26T02:33:59;101298.71;;;12.32;50.52
47742;BME280;33504;52.066;6.096;2022-10-26T02:36:32;101294.23;;;12.56;50.90
47742;BME280;33504;52.066;6.096;2022-10-26T02:39:01;101293.20;;;12.68;50.76
47742;BME280;33504;52.066;6.096;2022-10-26T02:41:30;101281.77;;;12.29;50.72
47742;BME280;33504;52.066;6.096;2022-10-26T02:44:03;101282.83;;;12.69;50.71
47742;BME280;33504;52.066;6.096;2022-10-26T02:46:33;101281.27;;;12.77;50.58
47742;BME280;33504;52.066;6.096;2022-10-26T02:48:59;101277.99;;;12.89;50.60
47742;BME280;33504;52.066;6.096;2022-10-26T02:51:31;101277.60;;;13.00;50.50
47742;BME280;33504;52.066;6.096;2022-10-26T02:54:06;101275.24;;;12.62;50.31
47742;BME280;33504;52.066;6.096;2022-10-26T02:56:43;101272.63;;;13.17;50.22
47742;BME280;33504;52.066;6.096;2022-10-26T02:59:14;101272.34;;;12.99;50.17
47742;BME280;33504;52.066;6.096;2022-10-26T03:01:43;101271.33;;;12.84;50.14
47742;BME280;33504;52.066;6.096;2022-10-26T03:04:11;101267.10;;;12.89;50.03
47742;BME280;33504;52.066;6.096;2022-10-26T03:06:38;101264.10;;;12.94;49.98
47742;BME280;33504;52.066;6.096;2022-10-26T03:09:06;101259.70;;;13.20;49.93
47742;BME280;33504;52.066;6.096;2022-10-26T03:11:33;101259.99;;;13.02;49.94
47742;BME280;33504;52.066;6.096;2022-10-26T03:14:00;101260.18;;;13.05;49.86
47742;BME280;33504;52.066;6.096;2022-10-26T03:16:27;101258.84;;;13.07;49.89
47742;BME280;33504;52.066;6.096;2022-10-26T03:18:54;101258.96;;;13.31;49.83
47742;BME280;33504;52.066;6.096;2022-10-26T03:21:21;101260.69;;;13.32;49.84
47742;BME280;33504;52.066;6.096;2022-10-26T03:23:47;101259.55;;;13.11;49.86
47742;BME280;33504;52.066;6.096;2022-10-26T03:26:15;101257.54;;;13.62;49.84
47742;BME280;33504;52.066;6.096;2022-10-26T03:28:42;101254.30;;;13.38;49.88
47742;BME280;33504;52.066;6.096;2022-10-26T03:31:10;101256.70;;;13.17;49.96
47742;BME280;33504;52.066;6.096;2022-10-26T03:33:37;101253.26;;;13.42;50.03
47742;BME280;33504;52.066;6.096;2022-10-26T03:36:05;101252.08;;;13.45;49.97
47742;BME280;33504;52.066;6.096;2022-10-26T03:38:32;101254.75;;;13.25;49.95
47742;BME280;33504;52.066;6.096;2022-10-26T03:40:59;101256.00;;;13.26;49.95
47742;BME280;33504;52.066;6.096;2022-10-26T03:43:26;101255.99;;;13.49;49.96
47742;BME280;33504;52.066;6.096;2022-10-26T03:45:53;101257.51;;;13.30;49.96
47742;BME280;33504;52.066;6.096;2022-10-26T03:48:20;101260.56;;;13.30;50.00
47742;BME280;33504;52.066;6.096;2022-10-26T03:50:47;101263.78;;;13.30;49.97
47742;BME280;33504;52.066;6.096;2022-10-26T03:53:14;101262.32;;;13.27;50.21
47742;BME280;33504;52.066;6.096;2022-10-26T03:55:43;101256.48;;;13.34;50.10
47742;BME280;33504;52.066;6.096;2022-10-26T03:58:10;101255.79;;;13.33;50.15
47742;BME280;33504;52.066;6.096;2022-10-26T04:00:37;101255.98;;;13.39;50.18
47742;BME280;33504;52.066;6.096;2022-10-26T04:03:04;101252.69;;;13.41;50.16
47742;BME280;33504;52.066;6.096;2022-10-26T04:05:31;101247.07;;;13.43;50.07
47742;BME280;33504;52.066;6.096;2022-10-26T04:08:00;101244.31;;;13.44;49.95
47742;BME280;33504;52.066;6.096;2022-10-26T04:10:27;101242.14;;;13.63;50.16
47742;BME280;33504;52.066;6.096;2022-10-26T04:12:54;101245.52;;;13.44;50.09
47742;BME280;33504;52.066;6.096;2022-10-26T04:15:22;101246.93;;;13.09;50.79
47742;BME280;33504;52.066;6.096;2022-10-26T04:17:54;101244.40;;;13.28;50.54
47742;BME280;33504;52.066;6.096;2022-10-26T04:20:22;101244.07;;;13.31;50.91
47742;BME280;33504;52.066;6.096;2022-10-26T04:22:56;101242.59;;;13.32;50.92
47742;BME280;33504;52.066;6.096;2022-10-26T04:25:23;101241.67;;;13.38;50.76
47742;BME280;33504;52.066;6.096;2022-10-26T04:27:50;101243.45;;;13.49;50.54
47742;BME280;33504;52.066;6.096;2022-10-26T04:30:17;101246.57;;;13.54;50.26
47742;BME280;33504;52.066;6.096;2022-10-26T04:32:44;101246.86;;;13.53;50.23
47742;BME280;33504;52.066;6.096;2022-10-26T04:35:11;101247.53;;;13.57;50.16
47742;BME280;33504;52.066;6.096;2022-10-26T04:37:38;101249.74;;;13.60;50.03
47742;BME280;33504;52.066;6.096;2022-10-26T04:40:06;101249.47;;;13.59;49.97
47742;BME280;33504;52.066;6.096;2022-10-26T04:42:39;101245.38;;;13.56;49.95
47742;BME280;33504;52.066;6.096;2022-10-26T04:45:08;101244.13;;;13.55;49.97
47742;BME280;33504;52.066;6.096;2022-10-26T04:47:35;101242.14;;;13.52;49.88
47742;BME280;33504;52.066;6.096;2022-10-26T04:50:02;101241.24;;;13.51;49.84
47742;BME280;33504;52.066;6.096;2022-10-26T04:52:29;101240.46;;;13.41;50.03
47742;BME280;33504;52.066;6.096;2022-10-26T04:54:56;101241.42;;;13.36;50.10
47742;BME280;33504;52.066;6.096;2022-10-26T04:57:23;101239.57;;;13.34;50.16
47742;BME280;33504;52.066;6.096;2022-10-26T04:59:50;101242.03;;;13.34;49.98
47742;BME280;33504;52.066;6.096;2022-10-26T05:02:17;101243.79;;;13.26;49.75
47742;BME280;33504;52.066;6.096;2022-10-26T05:04:44;101244.69;;;13.60;50.00
47742;BME280;33504;52.066;6.096;2022-10-26T05:07:11;101240.10;;;13.31;49.94
47742;BME280;33504;52.066;6.096;2022-10-26T05:09:38;101239.65;;;13.08;49.81
47742;BME280;33504;52.066;6.096;2022-10-26T05:12:05;101244.18;;;13.04;49.87
47742;BME280;33504;52.066;6.096;2022-10-26T05:14:32;101238.88;;;13.03;49.65
47742;BME280;33504;52.066;6.096;2022-10-26T05:16:59;101240.73;;;12.99;49.50
47742;BME280;33504;52.066;6.096;2022-10-26T05:19:27;101239.93;;;12.96;49.49
47742;BME280;33504;52.066;6.096;2022-10-26T05:21:54;101235.06;;;12.91;49.40
47742;BME280;33504;52.066;6.096;2022-10-26T05:24:21;101232.46;;;13.12;49.34
47742;BME280;33504;52.066;6.096;2022-10-26T05:26:48;101228.20;;;12.85;49.34
47742;BME280;33504;52.066;6.096;2022-10-26T05:29:15;101230.09;;;13.02;49.34
47742;BME280;33504;52.066;6.096;2022-10-26T05:31:42;101230.72;;;13.00;49.32
47742;BME280;33504;52.066;6.096;2022-10-26T05:34:09;101229.73;;;13.00;49.34
47742;BME280;33504;52.066;6.096;2022-10-26T05:36:36;101225.25;;;13.27;49.29
47742;BME280;33504;52.066;6.096;2022-10-26T05:39:03;101227.57;;;12.99;49.24
47742;BME280;33504;52.066;6.096;2022-10-26T05:41:29;101232.46;;;13.27;49.23
47742;BME280;33504;52.066;6.096;2022-10-26T05:43:57;101232.92;;;12.74;49.47
47742;BME280;33504;52.066;6.096;2022-10-26T05:46:24;101236.29;;;12.98;49.62
47742;BME280;33504;52.066;6.096;2022-10-26T05:48:51;101236.77;;;12.78;49.71
47742;BME280;33504;52.066;6.096;2022-10-26T05:51:18;101241.07;;;13.01;49.74
47742;BME280;33504;52.066;6.096;2022-10-26T05:53:45;101239.52;;;12.99;49.77
47742;BME280;33504;52.066;6.096;2022-10-26T05:56:16;101239.24;;;13.00;49.87
47742;BME280;33504;52.066;6.096;2022-10-26T05:58:46;101240.97;;;13.00;50.00
47742;BME280;33504;52.066;6.096;2022-10-26T06:01:22;101241.75;;;13.03;49.97
47742;BME280;33504;52.066;6.096;2022-10-26T06:04:05;101247.11;;;13.31;50.04
47742;BME280;33504;52.066;6.096;2022-10-26T06:06:40;101247.27;;;13.08;50.05
47742;BME280;33504;52.066;6.096;2022-10-26T06:09:10;101249.81;;;12.90;50.00
47742;BME280;33504;52.066;6.096;2022-10-26T06:11:38;101254.93;;;12.92;49.85
47742;BME280;33504;52.066;6.096;2022-10-26T06:14:07;101256.59;;;13.18;49.77
47742;BME280;33504;52.066;6.096;2022-10-26T06:16:43;101258.97;;;12.96;49.67
47742;BME280;33504;52.066;6.096;2022-10-26T06:19:21;101258.61;;;13.49;49.67
47742;BME280;33504;52.066;6.096;2022-10-26T06:22:02;101259.66;;;13.22;49.59
47742;BME280;33504;52.066;6.096;2022-10-26T06:24:37;101259.15;;;12.97;49.59
47742;BME280;33504;52.066;6.096;2022-10-26T06:27:16;101259.54;;;13.01;49.66
47742;BME280;33504;52.066;6.096;2022-10-26T06:29:53;101258.85;;;12.95;49.87
47742;BME280;33504;52.066;6.096;2022-10-26T06:32:22;101258.76;;;12.97;50.00
47742;BME280;33504;52.066;6.096;2022-10-26T06:34:52;101261.31;;;13.26;50.02
47742;BME280;33504;52.066;6.096;2022-10-26T06:37:25;101259.47;;;13.07;50.05
47742;BME280;33504;52.066;6.096;2022-10-26T06:39:55;101258.51;;;13.10;49.99
47742;BME280;33504;52.066;6.096;2022-10-26T06:42:23;101262.65;;;13.13;49.98
47742;BME280;33504;52.066;6.096;2022-10-26T06:44:51;101265.32;;;13.13;49.98
47742;BME280;33504;52.066;6.096;2022-10-26T06:47:21;101266.28;;;13.14;49.94
47742;BME280;33504;52.066;6.096;2022-10-26T06:50:00;101262.27;;;13.15;50.00
47742;BME280;33504;52.066;6.096;2022-10-26T06:52:34;101263.73;;;13.21;50.02
47742;BME280;33504;52.066;6.096;2022-10-26T06:55:04;101259.17;;;13.24;50.01
47742;BME280;33504;52.066;6.096;2022-10-26T06:57:34;101256.83;;;13.30;49.95
47742;BME280;33504;52.066;6.096;2022-10-26T07:00:05;101255.43;;;13.34;49.71
47742;BME280;33504;52.066;6.096;2022-10-26T07:02:32;101260.34;;;13.33;49.66
47742;BME280;33504;52.066;6.096;2022-10-26T07:04:59;101261.81;;;13.64;49.47
47742;BME280;33504;52.066;6.096;2022-10-26T07:07:28;101258.67;;;13.41;49.51
47742;BME280;33504;52.066;6.096;2022-10-26T07:09:56;101258.20;;;13.42;49.50
47742;BME280;33504;52.066;6.096;2022-10-26T07:12:23;101255.11;;;13.44;49.49
47742;BME280;33504;52.066;6.096;2022-10-26T07:14:50;101257.93;;;13.50;49.48
47742;BME280;33504;52.066;6.096;2022-10-26T07:17:17;101261.31;;;13.52;49.45
47742;BME280;33504;52.066;6.096;2022-10-26T07:19:43;101262.86;;;13.56;49.53
47742;BME280;33504;52.066;6.096;2022-10-26T07:22:11;101264.34;;;13.61;49.45
47742;BME280;33504;52.066;6.096;2022-10-26T07:24:39;101259.41;;;13.87;49.49
47742;BME280;33504;52.066;6.096;2022-10-26T07:27:06;101258.20;;;13.72;49.40
47742;BME280;33504;52.066;6.096;2022-10-26T07:29:33;101256.76;;;13.79;49.39
47742;BME280;33504;52.066;6.096;2022-10-26T07:32:00;101255.02;;;14.44;49.38
47742;BME280;33504;52.066;6.096;2022-10-26T07:34:27;101255.98;;;15.07;48.73
47742;BME280;33504;52.066;6.096;2022-10-26T07:36:54;101255.27;;;15.77;47.48
47742;BME280;33504;52.066;6.096;2022-10-26T07:39:21;101256.90;;;16.21;46.02
47742;BME280;33504;52.066;6.096;2022-10-26T07:41:48;101256.68;;;17.09;44.57
47742;BME280;33504;52.066;6.096;2022-10-26T07:44:15;101264.02;;;17.67;43.34
47742;BME280;33504;52.066;6.096;2022-10-26T07:46:42;101270.85;;;17.94;42.36
47742;BME280;33504;52.066;6.096;2022-10-26T07:49:09;101274.23;;;18.48;41.69
47742;BME280;33504;52.066;6.096;2022-10-26T07:51:36;101275.06;;;18.48;41.29
47742;BME280;33504;52.066;6.096;2022-10-26T07:54:03;101276.22;;;18.40;41.47
47742;BME280;33504;52.066;6.096;2022-10-26T07:56:31;101277.76;;;18.42;41.77
47742;BME280;33504;52.066;6.096;2022-10-26T07:58:58;101275.26;;;18.65;42.11
47742;BME280;33504;52.066;6.096;2022-10-26T08:01:25;101276.01;;;18.86;41.47
47742;BME280;33504;52.066;6.096;2022-10-26T08:03:53;101274.19;;;19.29;41.61
47742;BME280;33504;52.066;6.096;2022-10-26T08:06:20;101274.16;;;19.54;40.48
47742;BME280;33504;52.066;6.096;2022-10-26T08:08:48;101278.10;;;19.91;39.91
47742;BME280;33504;52.066;6.096;2022-10-26T08:11:16;101283.90;;;20.17;39.55
47742;BME280;33504;52.066;6.096;2022-10-26T08:13:43;101286.35;;;20.47;39.58
47742;BME280;33504;52.066;6.096;2022-10-26T08:16:10;101285.04;;;20.62;39.05
47742;BME280;33504;52.066;6.096;2022-10-26T08:18:38;101281.67;;;21.03;38.91
47742;BME280;33504;52.066;6.096;2022-10-26T08:21:08;101284.30;;;20.74;38.38
47742;BME280;33504;52.066;6.096;2022-10-26T08:23:35;101285.15;;;20.96;38.20
47742;BME280;33504;52.066;6.096;2022-10-26T08:26:03;101285.42;;;21.02;38.22
47742;BME280;33504;52.066;6.096;2022-10-26T08:28:30;101287.52;;;21.67;37.71
47742;BME280;33504;52.066;6.096;2022-10-26T08:30:57;101292.40;;;22.07;37.32
47742;BME280;33504;52.066;6.096;2022-10-26T08:33:24;101290.04;;;21.76;36.97
47742;BME280;33504;52.066;6.096;2022-10-26T08:35:54;101287.61;;;22.13;36.87
47742;BME280;33504;52.066;6.096;2022-10-26T08:38:22;101277.62;;;22.13;36.34
47742;BME280;33504;52.066;6.096;2022-10-26T08:40:50;101278.27;;;22.14;36.08
47742;BME280;33504;52.066;6.096;2022-10-26T08:43:21;101286.08;;;22.42;36.63
47742;BME280;33504;52.066;6.096;2022-10-26T08:45:52;101303.89;;;22.80;36.10
47742;BME280;33504;52.066;6.096;2022-10-26T08:48:26;101315.18;;;23.20;35.39
47742;BME280;33504;52.066;6.096;2022-10-26T08:50:56;101318.40;;;23.38;35.16
47742;BME280;33504;52.066;6.096;2022-10-26T08:53:31;101318.65;;;23.16;34.93
47742;BME280;33504;52.066;6.096;2022-10-26T08:56:05;101310.44;;;23.13;34.88
47742;BME280;33504;52.066;6.096;2022-10-26T08:58:38;101311.75;;;23.17;35.07
47742;BME280;33504;52.066;6.096;2022-10-26T09:01:07;101315.77;;;23.33;35.43
47742;BME280;33504;52.066;6.096;2022-10-26T09:03:35;101315.77;;;23.68;34.66
47742;BME280;33504;52.066;6.096;2022-10-26T09:06:15;101317.51;;;23.58;34.43
47742;BME280;33504;52.066;6.096;2022-10-26T09:08:55;101319.33;;;24.17;34.74
47742;BME280;33504;52.066;6.096;2022-10-26T09:11:36;101318.28;;;24.27;33.00
47742;BME280;33504;52.066;6.096;2022-10-26T09:14:12;101318.92;;;23.93;33.83
47742;BME280;33504;52.066;6.096;2022-10-26T09:16:50;101321.50;;;24.49;33.61
47742;BME280;33504;52.066;6.096;2022-10-26T09:19:34;101321.57;;;23.62;33.85
47742;BME280;33504;52.066;6.096;2022-10-26T09:22:07;101320.83;;;23.55;33.87
47742;BME280;33504;52.066;6.096;2022-10-26T09:24:38;101320.45;;;24.50;34.17
47742;BME280;33504;52.066;6.096;2022-10-26T09:27:13;101327.31;;;24.72;33.14
47742;BME280;33504;52.066;6.096;2022-10-26T09:29:44;101334.06;;;24.10;32.82
47742;BME280;33504;52.066;6.096;2022-10-26T09:32:15;101337.68;;;24.52;33.70
47742;BME280;33504;52.066;6.096;2022-10-26T09:34:48;101336.80;;;24.86;33.04
47742;BME280;33504;52.066;6.096;2022-10-26T09:37:20;101331.79;;;24.76;32.63
47742;BME280;33504;52.066;6.096;2022-10-26T09:39:59;101335.23;;;25.33;32.96
47742;BME280;33504;52.066;6.096;2022-10-26T09:42:37;101327.96;;;25.75;31.65
47742;BME280;33504;52.066;6.096;2022-10-26T09:45:14;101331.57;;;25.33;31.79
47742;BME280;33504;52.066;6.096;2022-10-26T09:47:49;101330.73;;;25.23;32.15
47742;BME280;33504;52.066;6.096;2022-10-26T09:50:27;101323.28;;;25.06;31.79
47742;BME280;33504;52.066;6.096;2022-10-26T09:52:55;101323.30;;;25.22;31.42
47742;BME280;33504;52.066;6.096;2022-10-26T09:55:25;101319.47;;;25.50;32.09
47742;BME280;33504;52.066;6.096;2022-10-26T09:57:55;101320.66;;;25.86;31.34
47742;BME280;33504;52.066;6.096;2022-10-26T10:00:26;101319.55;;;25.60;31.80
47742;BME280;33504;52.066;6.096;2022-10-26T10:02:54;101325.69;;;26.30;31.11
47742;BME280;33504;52.066;6.096;2022-10-26T10:05:24;101332.80;;;26.45;30.54
47742;BME280;33504;52.066;6.096;2022-10-26T10:08:07;101339.53;;;26.30;30.97
47742;BME280;33504;52.066;6.096;2022-10-26T10:10:36;101344.14;;;26.35;31.42
47742;BME280;33504;52.066;6.096;2022-10-26T10:13:14;101350.56;;;26.01;31.16
47742;BME280;33504;52.066;6.096;2022-10-26T10:15:50;101350.67;;;25.52;31.61
47742;BME280;33504;52.066;6.096;2022-10-26T10:18:19;101348.25;;;25.45;31.73
47742;BME280;33504;52.066;6.096;2022-10-26T10:20:51;101348.16;;;25.05;32.78
47742;BME280;33504;52.066;6.096;2022-10-26T10:23:27;101350.15;;;25.77;32.40
47742;BME280;33504;52.066;6.096;2022-10-26T10:25:59;101349.98;;;25.22;32.43
47742;BME280;33504;52.066;6.096;2022-10-26T10:28:27;101370.46;;;25.42;32.38
47742;BME280;33504;52.066;6.096;2022-10-26T10:30:56;101386.26;;;25.61;32.02
47742;BME280;33504;52.066;6.096;2022-10-26T10:33:31;101387.10;;;24.98;33.16
47742;BME280;33504;52.066;6.096;2022-10-26T10:35:59;101396.74;;;24.70;33.55
47742;BME280;33504;52.066;6.096;2022-10-26T10:38:27;101401.78;;;24.70;33.81
47742;BME280;33504;52.066;6.096;2022-10-26T10:40:56;101397.75;;;24.39;34.07
47742;BME280;33504;52.066;6.096;2022-10-26T10:43:25;101396.59;;;24.84;33.78
47742;BME280;33504;52.066;6.096;2022-10-26T10:45:55;101397.64;;;24.98;33.22
47742;BME280;33504;52.066;6.096;2022-10-26T10:48:25;101392.21;;;25.55;33.03
47742;BME280;33504;52.066;6.096;2022-10-26T10:50:55;101391.66;;;26.00;32.11
47742;BME280;33504;52.066;6.096;2022-10-26T10:53:32;101398.99;;;26.17;31.91
47742;BME280;33504;52.066;6.096;2022-10-26T10:56:12;101401.45;;;26.87;31.28
47742;BME280;33504;52.066;6.096;2022-10-26T10:58:51;101408.81;;;27.30;30.24
47742;BME280;33504;52.066;6.096;2022-10-26T11:01:29;101404.01;;;26.67;30.84
47742;BME280;33504;52.066;6.096;2022-10-26T11:04:14;101404.82;;;26.90;30.55
47742;BME280;33504;52.066;6.096;2022-10-26T11:06:47;101402.02;;;26.83;30.52
47742;BME280;33504;52.066;6.096;2022-10-26T11:09:18;101407.21;;;27.17;30.03
47742;BME280;33504;52.066;6.096;2022-10-26T11:11:51;101412.21;;;27.34;30.38
47742;BME280;33504;52.066;6.096;2022-10-26T11:14:23;101412.09;;;26.66;30.61
47742;BME280;33504;52.066;6.096;2022-10-26T11:16:55;101419.29;;;26.79;30.78
47742;BME280;33504;52.066;6.096;2022-10-26T11:19:27;101422.05;;;26.41;30.79
47742;BME280;33504;52.066;6.096;2022-10-26T11:21:56;101423.11;;;26.36;31.34
47742;BME280;33504;52.066;6.096;2022-10-26T11:24:27;101428.04;;;26.03;32.04
47742;BME280;33504;52.066;6.096;2022-10-26T11:26:59;101433.90;;;26.42;31.37
47742;BME280;33504;52.066;6.096;2022-10-26T11:29:32;101431.25;;;24.67;33.24
47742;BME280;33504;52.066;6.096;2022-10-26T11:32:12;101435.34;;;25.77;32.99
47742;BME280;33504;52.066;6.096;2022-10-26T11:34:46;101442.86;;;25.41;33.35
47742;BME280;33504;52.066;6.096;2022-10-26T11:37:21;101451.72;;;25.48;33.31
47742;BME280;33504;52.066;6.096;2022-10-26T11:40:01;101449.00;;;25.67;33.64
47742;BME280;33504;52.066;6.096;2022-10-26T11:42:33;101444.92;;;25.44;33.99
47742;BME280;33504;52.066;6.096;2022-10-26T11:45:09;101443.46;;;25.61;33.86
47742;BME280;33504;52.066;6.096;2022-10-26T11:47:42;101443.85;;;25.80;33.88
47742;BME280;33504;52.066;6.096;2022-10-26T11:50:16;101443.50;;;25.13;34.20
47742;BME280;33504;52.066;6.096;2022-10-26T11:52:49;101439.29;;;25.34;34.37
47742;BME280;33504;52.066;6.096;2022-10-26T11:55:19;101448.24;;;24.83;34.93
47742;BME280;33504;52.066;6.096;2022-10-26T11:57:49;101453.03;;;24.75;34.89
47742;BME280;33504;52.066;6.096;2022-10-26T12:00:20;101453.16;;;24.96;34.87
47742;BME280;33504;52.066;6.096;2022-10-26T12:02:51;101462.44;;;23.94;35.56
47742;BME280;33504;52.066;6.096;2022-10-26T12:05:24;101463.52;;;23.92;35.99
47742;BME280;33504;52.066;6.096;2022-10-26T12:07:55;101465.34;;;24.09;36.27
47742;BME280;33504;52.066;6.096;2022-10-26T12:10:26;101472.88;;;23.80;36.44
47742;BME280;33504;52.066;6.096;2022-10-26T12:13:01;101473.11;;;23.21;37.24
47742;BME280;33504;52.066;6.096;2022-10-26T12:15:33;101482.77;;;23.30;37.31
47742;BME280;33504;52.066;6.096;2022-10-26T12:18:11;101488.01;;;23.25;37.52
47742;BME280;33504;52.066;6.096;2022-10-26T12:20:52;101488.89;;;23.07;38.03
47742;BME280;33504;52.066;6.096;2022-10-26T12:23:22;101491.67;;;23.03;38.20
47742;BME280;33504;52.066;6.096;2022-10-26T12:25:49;101490.35;;;22.90;38.53
47742;BME280;33504;52.066;6.096;2022-10-26T12:28:40;101490.65;;;22.96;38.72
47742;BME280;33504;52.066;6.096;2022-10-26T12:31:40;101488.18;;;23.03;38.34
47742;BME280;33504;52.066;6.096;2022-10-26T12:34:11;101486.28;;;23.53;38.42
47742;BME280;33504;52.066;6.096;2022-10-26T12:36:47;101483.79;;;23.45;37.63
47742;BME280;33504;52.066;6.096;2022-10-26T12:39:31;101483.43;;;23.26;38.13
47742;BME280;33504;52.066;6.096;2022-10-26T12:42:24;101488.11;;;23.23;37.95
47742;BME280;33504;52.066;6.096;2022-10-26T12:45:12;101485.37;;;23.85;37.17
47742;BME280;33504;52.066;6.096;2022-10-26T12:48:21;101483.63;;;23.97;37.51
47742;BME280;33504;52.066;6.096;2022-10-26T12:50:49;101486.81;;;24.10;36.74
47742;BME280;33504;52.066;6.096;2022-10-26T12:53:17;101490.76;;;25.15;35.64
47742;BME280;33504;52.066;6.096;2022-10-26T12:56:02;101495.53;;;25.26;34.81
47742;BME280;33504;52.066;6.096;2022-10-26T12:58:43;101499.59;;;25.56;34.87
47742;BME280;33504;52.066;6.096;2022-10-26T13:01:25;101502.48;;;25.41;34.31
47742;BME280;33504;52.066;6.096;2022-10-26T13:04:05;101502.79;;;24.77;35.32
47742;BME280;33504;52.066;6.096;2022-10-26T13:06:47;101511.14;;;25.21;35.38
47742;BME280;33504;52.066;6.096;2022-10-26T13:09:20;101515.12;;;25.20;35.09
47742;BME280;33504;52.066;6.096;2022-10-26T13:11:51;101519.35;;;25.01;35.05